Time;durP1;ratioP1;P1;durP2;ratioP2;P2;SDS_P1;SDS_P2;PMS_P1;PMS_P2;Temp;Humidity;BMP_temperature;BMP_pressure;BME280_temperature;BME280_humidity;BME280_pressure;Samples;Min_cycle;Max_cycle;Signal;HPM_P1;HPM_P2
2023/03/26 00:01:12;;;;;;;8.65;2.67;;;6.20;99.90;;;;;;496550;239;27604;-76
2023/03/26 00:03:11;;;;;;;7.30;2.30;;;6.20;99.90;;;;;;496417;239;27526;-77
2023/03/26 00:05:13;;;;;;;7.70;2.73;;;6.20;99.90;;;;;;496350;239;27489;-73
2023/03/26 00:07:14;;;;;;;8.75;2.70;;;6.20;99.90;;;;;;496555;239;28440;-74
2023/03/26 00:09:15;;;;;;;3.53;2.22;;;6.20;99.90;;;;;;496583;239;28048;-74
2023/03/26 00:11:16;;;;;;;11.57;3.03;;;6.20;99.90;;;;;;496598;239;27587;-76
2023/03/26 00:13:17;;;;;;;4.70;2.17;;;6.20;99.90;;;;;;496562;239;28060;-75
2023/03/26 00:15:19;;;;;;;8.27;2.47;;;6.20;99.90;;;;;;496095;239;27513;-76
2023/03/26 00:17:20;;;;;;;5.07;2.70;;;6.10;99.90;;;;;;496547;239;27546;-76
2023/03/26 00:19:21;;;;;;;4.53;2.30;;;6.20;99.90;;;;;;496572;239;28691;-76
2023/03/26 00:21:26;;;;;;;5.45;2.30;;;6.10;99.90;;;;;;496583;239;27990;-75
2023/03/26 00:23:27;;;;;;;8.80;2.43;;;6.10;99.90;;;;;;496566;239;27543;-76
2023/03/26 00:25:28;;;;;;;9.52;2.45;;;6.10;99.90;;;;;;496507;239;28821;-76
2023/03/26 00:27:29;;;;;;;12.33;3.63;;;6.10;99.90;;;;;;496557;239;27586;-76
2023/03/26 00:29:32;;;;;;;11.70;2.62;;;6.10;99.90;;;;;;496491;239;28877;-76
2023/03/26 00:31:32;;;;;;;7.30;2.55;;;6.10;99.90;;;;;;496525;239;27985;-75
2023/03/26 00:33:37;;;;;;;10.85;3.25;;;6.10;99.90;;;;;;496560;239;27471;-76
2023/03/26 00:35:35;;;;;;;8.60;2.58;;;6.10;99.90;;;;;;496250;236;27585;-76
2023/03/26 00:37:35;;;;;;;7.80;3.03;;;6.10;99.90;;;;;;496574;239;27852;-73
2023/03/26 00:39:38;;;;;;;8.50;2.87;;;6.10;99.90;;;;;;496522;239;27479;-72
2023/03/26 00:41:41;;;;;;;10.98;2.78;;;6.10;99.90;;;;;;496506;239;27506;-73
2023/03/26 00:43:39;;;;;;;9.20;2.50;;;6.10;99.90;;;;;;496348;239;28010;-72
2023/03/26 00:45:41;;;;;;;8.55;2.85;;;6.10;99.90;;;;;;496482;239;27528;-76
2023/03/26 00:47:42;;;;;;;6.18;2.55;;;6.10;99.90;;;;;;496595;239;27513;-76
2023/03/26 00:49:45;;;;;;;6.53;2.72;;;6.10;99.90;;;;;;496595;239;27467;-76
2023/03/26 00:51:44;;;;;;;11.00;2.60;;;6.10;99.90;;;;;;496457;239;27529;-76
2023/03/26 00:53:46;;;;;;;13.00;2.92;;;6.10;99.90;;;;;;496603;239;28823;-75
2023/03/26 00:55:47;;;;;;;16.65;3.97;;;6.10;99.90;;;;;;496538;239;27940;-76
2023/03/26 00:57:48;;;;;;;7.37;2.60;;;6.10;99.90;;;;;;496598;239;27985;-75
2023/03/26 00:59:49;;;;;;;10.75;2.67;;;6.10;99.90;;;;;;496609;235;27473;-75
2023/03/26 01:01:53;;;;;;;15.38;3.45;;;6.10;99.90;;;;;;496603;239;27518;-76
2023/03/26 01:03:57;;;;;;;5.87;2.20;;;6.10;99.90;;;;;;496353;239;27886;-76
2023/03/26 01:05:54;;;;;;;13.68;2.80;;;6.10;99.90;;;;;;496130;239;27556;-76
2023/03/26 01:07:54;;;;;;;8.90;3.17;;;6.10;99.90;;;;;;496498;239;28072;-76
2023/03/26 01:09:56;;;;;;;9.20;3.10;;;6.20;99.90;;;;;;496582;239;29285;-76
2023/03/26 01:11:57;;;;;;;8.07;2.90;;;6.10;99.90;;;;;;496511;236;27497;-76
2023/03/26 01:13:58;;;;;;;16.53;3.50;;;6.20;99.90;;;;;;496338;239;28947;-75
2023/03/26 01:16:00;;;;;;;16.08;3.08;;;6.20;99.90;;;;;;496518;239;28381;-75
2023/03/26 01:18:03;;;;;;;8.95;2.95;;;6.20;99.90;;;;;;496565;239;27510;-76
2023/03/26 01:20:05;;;;;;;5.70;2.40;;;6.20;99.90;;;;;;496404;239;27466;-76
2023/03/26 01:22:04;;;;;;;4.37;2.10;;;6.30;99.90;;;;;;496307;239;27505;-76
2023/03/26 01:24:05;;;;;;;14.05;2.92;;;6.30;99.90;;;;;;496534;239;27962;-76
2023/03/26 01:26:06;;;;;;;6.95;2.97;;;6.40;99.90;;;;;;496402;239;27515;-76
2023/03/26 01:28:07;;;;;;;16.52;3.45;;;6.40;99.90;;;;;;496571;239;27517;-76
2023/03/26 01:30:12;;;;;;;6.75;3.22;;;6.40;99.90;;;;;;496590;239;27489;-76
2023/03/26 01:32:09;;;;;;;5.28;2.55;;;6.50;99.90;;;;;;496437;239;27370;-76
2023/03/26 01:34:11;;;;;;;10.00;2.90;;;6.50;99.90;;;;;;496528;239;27522;-76
2023/03/26 01:36:12;;;;;;;12.17;3.03;;;6.50;99.90;;;;;;496492;239;27928;-76
2023/03/26 01:38:13;;;;;;;8.60;2.40;;;6.40;99.90;;;;;;496609;239;28670;-76
2023/03/26 01:40:15;;;;;;;6.17;2.40;;;6.40;99.90;;;;;;496571;239;28855;-76
2023/03/26 01:42:16;;;;;;;8.57;2.73;;;6.40;99.90;;;;;;496498;239;28811;-75
2023/03/26 01:44:17;;;;;;;12.02;3.08;;;6.40;99.90;;;;;;496590;239;28916;-76
2023/03/26 01:46:18;;;;;;;7.10;2.40;;;6.40;99.90;;;;;;496564;239;27455;-75
2023/03/26 01:48:20;;;;;;;12.93;2.87;;;6.40;99.90;;;;;;496545;239;27501;-75
2023/03/26 01:50:21;;;;;;;4.30;2.20;;;6.40;99.90;;;;;;496464;239;28878;-76
2023/03/26 01:52:24;;;;;;;4.00;2.37;;;6.40;99.90;;;;;;496634;239;28170;-76
2023/03/26 01:54:23;;;;;;;10.53;2.53;;;6.40;99.90;;;;;;496339;239;28320;-75
2023/03/26 01:56:25;;;;;;;11.63;2.70;;;6.40;99.90;;;;;;496626;239;28736;-75
2023/03/26 01:58:26;;;;;;;10.48;2.75;;;6.40;99.90;;;;;;496433;237;28536;-76
2023/03/26 02:00:27;;;;;;;12.02;2.97;;;6.30;99.90;;;;;;496581;235;27527;-76
2023/03/26 02:02:28;;;;;;;10.43;3.08;;;6.30;99.90;;;;;;496603;239;27490;-76
2023/03/26 02:04:30;;;;;;;4.55;1.90;;;6.30;99.90;;;;;;496552;239;27530;-76
2023/03/26 02:06:33;;;;;;;5.73;2.60;;;6.30;99.90;;;;;;496451;239;27539;-75
2023/03/26 02:08:34;;;;;;;8.03;2.67;;;6.20;99.90;;;;;;496365;239;28085;-75
2023/03/26 02:10:33;;;;;;;9.33;2.63;;;6.20;99.90;;;;;;496461;236;28868;-76
2023/03/26 02:12:35;;;;;;;6.40;2.57;;;6.20;99.90;;;;;;496530;239;28742;-76
2023/03/26 02:14:36;;;;;;;8.53;2.30;;;6.20;99.90;;;;;;496518;239;28406;-76
2023/03/26 02:16:37;;;;;;;11.90;2.75;;;6.20;99.90;;;;;;496535;239;28556;-76
2023/03/26 02:18:38;;;;;;;6.57;2.08;;;6.20;99.90;;;;;;496527;239;27510;-76
2023/03/26 02:20:40;;;;;;;8.00;2.50;;;6.20;99.90;;;;;;496579;239;27631;-75
2023/03/26 02:22:44;;;;;;;8.45;2.28;;;6.30;99.90;;;;;;496503;239;27510;-76
2023/03/26 02:24:42;;;;;;;6.97;2.70;;;6.30;99.90;;;;;;496318;239;27505;-76
2023/03/26 02:26:43;;;;;;;5.80;2.20;;;6.30;99.90;;;;;;496598;239;28026;-76
2023/03/26 02:28:45;;;;;;;8.50;2.67;;;6.30;99.90;;;;;;496557;236;27975;-76
2023/03/26 02:30:46;;;;;;;9.20;2.47;;;6.30;99.90;;;;;;496596;239;28817;-75
2023/03/26 02:32:51;;;;;;;11.12;2.53;;;6.30;99.90;;;;;;496608;239;28524;-76
2023/03/26 02:34:50;;;;;;;6.80;2.20;;;6.30;99.90;;;;;;496099;239;27534;-76
2023/03/26 02:36:50;;;;;;;9.93;2.35;;;6.30;99.90;;;;;;496323;239;27484;-76
2023/03/26 02:38:51;;;;;;;7.23;2.30;;;6.30;99.90;;;;;;496553;239;27521;-76
2023/03/26 02:40:53;;;;;;;6.80;2.55;;;6.30;99.90;;;;;;496531;239;28257;-76
2023/03/26 02:42:54;;;;;;;6.50;2.40;;;6.30;99.90;;;;;;496565;239;27932;-76
2023/03/26 02:44:55;;;;;;;12.17;3.10;;;6.30;99.90;;;;;;496560;239;28235;-76
2023/03/26 02:46:56;;;;;;;5.35;2.55;;;6.30;99.90;;;;;;496579;239;28748;-76
2023/03/26 02:48:57;;;;;;;7.72;2.10;;;6.40;99.90;;;;;;496569;239;27511;-76
2023/03/26 02:50:59;;;;;;;7.93;3.27;;;6.40;99.90;;;;;;496587;239;27601;-76
2023/03/26 02:53:00;;;;;;;7.70;2.37;;;6.40;99.90;;;;;;496601;239;28835;-76
2023/03/26 02:55:01;;;;;;;11.12;3.17;;;6.40;99.90;;;;;;496562;239;28955;-76
2023/03/26 02:57:02;;;;;;;9.93;2.80;;;6.40;99.90;;;;;;496585;239;27490;-76
2023/03/26 02:59:03;;;;;;;12.00;3.50;;;6.40;99.90;;;;;;496545;239;27507;-76
2023/03/26 03:01:05;;;;;;;6.10;2.60;;;6.40;99.90;;;;;;496532;239;28516;-73
2023/03/26 03:03:08;;;;;;;8.40;3.22;;;6.40;99.90;;;;;;496605;239;29070;-73
2023/03/26 03:05:07;;;;;;;13.60;2.78;;;6.30;99.90;;;;;;496456;239;28097;-72
2023/03/26 03:07:13;;;;;;;6.93;2.63;;;6.40;99.90;;;;;;496622;239;27577;-76
2023/03/26 03:09:10;;;;;;;11.50;3.10;;;6.40;99.90;;;;;;496272;239;27616;-76
2023/03/26 03:11:11;;;;;;;10.68;2.90;;;6.40;99.90;;;;;;496598;239;28084;-76
2023/03/26 03:13:13;;;;;;;11.18;3.10;;;6.40;99.90;;;;;;496632;239;27455;-76
2023/03/26 03:15:14;;;;;;;6.60;2.80;;;6.40;99.90;;;;;;496116;239;27509;-76
2023/03/26 03:17:15;;;;;;;6.17;2.20;;;6.30;99.90;;;;;;496261;239;28748;-76
2023/03/26 03:19:16;;;;;;;8.07;2.77;;;6.40;99.90;;;;;;496461;239;28540;-76
2023/03/26 03:21:17;;;;;;;7.57;2.40;;;6.40;99.90;;;;;;496472;239;28984;-76
2023/03/26 03:23:19;;;;;;;6.10;2.50;;;6.40;99.90;;;;;;496550;239;28074;-76
2023/03/26 03:25:21;;;;;;;8.45;2.65;;;6.40;99.90;;;;;;496579;239;28342;-75
2023/03/26 03:27:22;;;;;;;3.97;2.22;;;6.40;99.90;;;;;;496561;239;27592;-76
2023/03/26 03:29:22;;;;;;;10.80;2.72;;;6.30;99.90;;;;;;496533;239;27482;-75
2023/03/26 03:31:24;;;;;;;8.88;2.42;;;6.30;99.90;;;;;;496630;239;27593;-76
2023/03/26 03:33:25;;;;;;;8.20;2.87;;;6.30;99.90;;;;;;496620;239;27488;-76
2023/03/26 03:35:29;;;;;;;6.10;2.43;;;6.30;99.90;;;;;;496574;239;28857;-76
2023/03/26 03:37:30;;;;;;;7.60;2.47;;;6.40;99.90;;;;;;496593;239;27862;-76
2023/03/26 03:39:32;;;;;;;8.40;2.25;;;6.40;99.90;;;;;;496577;239;28869;-76
2023/03/26 03:41:33;;;;;;;9.23;2.53;;;6.40;99.90;;;;;;496596;239;27458;-76
2023/03/26 03:43:34;;;;;;;6.77;3.00;;;6.40;99.90;;;;;;496541;239;27502;-76
2023/03/26 03:45:35;;;;;;;4.83;2.17;;;6.40;99.90;;;;;;496584;239;28274;-76
2023/03/26 03:47:37;;;;;;;7.07;2.83;;;6.40;99.90;;;;;;496571;239;29416;-76
2023/03/26 03:49:38;;;;;;;4.50;2.47;;;6.40;99.90;;;;;;496539;239;28834;-76
2023/03/26 03:51:39;;;;;;;5.40;2.10;;;6.50;99.90;;;;;;496614;239;28165;-76
2023/03/26 03:53:40;;;;;;;6.33;2.87;;;6.40;99.90;;;;;;496588;239;28241;-76
2023/03/26 03:55:42;;;;;;;15.93;3.13;;;6.40;99.90;;;;;;496526;239;28844;-76
2023/03/26 03:57:43;;;;;;;6.20;2.15;;;6.40;99.90;;;;;;496560;239;28523;-76
2023/03/26 03:59:46;;;;;;;9.93;2.80;;;6.40;99.90;;;;;;496605;239;27498;-76
2023/03/26 04:01:46;;;;;;;9.88;2.85;;;6.40;99.90;;;;;;496512;239;28164;-75
2023/03/26 04:03:47;;;;;;;4.90;2.20;;;6.40;99.90;;;;;;496528;239;27518;-75
2023/03/26 04:05:53;;;;;;;7.97;3.07;;;6.40;99.90;;;;;;496539;239;28627;-75
2023/03/26 04:07:52;;;;;;;8.38;3.20;;;6.50;99.90;;;;;;496386;239;27955;-76
2023/03/26 04:09:53;;;;;;;7.33;2.30;;;6.50;99.90;;;;;;496564;239;27506;-76
2023/03/26 04:11:55;;;;;;;9.52;3.42;;;6.50;99.90;;;;;;496545;239;27945;-76
2023/03/26 04:13:56;;;;;;;7.33;2.53;;;6.50;99.90;;;;;;496559;239;27465;-73
2023/03/26 04:15:57;;;;;;;14.00;2.90;;;6.50;99.90;;;;;;496542;236;28452;-76
2023/03/26 04:17:58;;;;;;;15.83;2.93;;;6.50;99.90;;;;;;496586;239;28599;-76
2023/03/26 04:20:13;;;;;;;7.87;2.57;;;6.50;99.90;;;;;;496589;239;28335;-76
2023/03/26 04:22:01;;;;;;;8.10;2.55;;;6.50;99.90;;;;;;495569;239;29326;-76
2023/03/26 04:24:02;;;;;;;5.03;2.20;;;6.50;99.90;;;;;;496626;239;27505;-76
2023/03/26 04:26:03;;;;;;;6.18;2.42;;;6.50;99.90;;;;;;496581;239;28652;-76
2023/03/26 04:28:05;;;;;;;8.20;2.73;;;6.50;99.90;;;;;;496629;239;27568;-76
2023/03/26 04:30:06;;;;;;;5.87;2.60;;;6.50;99.90;;;;;;496597;239;28115;-76
2023/03/26 04:32:07;;;;;;;15.25;2.95;;;6.50;99.90;;;;;;496610;239;28842;-76
2023/03/26 04:34:13;;;;;;;11.00;2.93;;;6.60;99.90;;;;;;496602;239;27550;-74
2023/03/26 04:36:10;;;;;;;11.53;2.43;;;6.50;99.90;;;;;;496328;239;28462;-73
2023/03/26 04:38:11;;;;;;;8.87;2.87;;;6.50;99.90;;;;;;496492;239;28079;-73
2023/03/26 04:40:12;;;;;;;9.60;3.60;;;6.60;99.90;;;;;;496592;239;28305;-74
2023/03/26 04:42:14;;;;;;;8.13;3.17;;;6.60;99.90;;;;;;496608;239;29335;-73
2023/03/26 04:44:15;;;;;;;6.13;2.20;;;6.60;99.90;;;;;;496599;239;29188;-73
2023/03/26 04:46:22;;;;;;;13.50;3.00;;;6.60;99.90;;;;;;496573;235;28115;-73
2023/03/26 04:48:20;;;;;;;4.72;2.30;;;6.60;99.90;;;;;;496524;239;27507;-75
2023/03/26 04:50:21;;;;;;;10.60;2.50;;;6.60;99.90;;;;;;496631;239;27475;-76
2023/03/26 04:52:22;;;;;;;9.17;3.17;;;6.60;99.90;;;;;;496595;239;27787;-76
2023/03/26 04:54:24;;;;;;;5.73;2.73;;;6.60;99.90;;;;;;496584;239;27991;-76
2023/03/26 04:56:25;;;;;;;9.23;2.50;;;6.60;99.90;;;;;;496617;237;27998;-76
2023/03/26 04:58:31;;;;;;;6.70;2.43;;;6.60;99.90;;;;;;496618;239;27962;-76
2023/03/26 05:00:28;;;;;;;13.23;2.73;;;6.60;99.90;;;;;;496277;239;28361;-76
2023/03/26 05:02:31;;;;;;;10.10;2.57;;;6.70;99.90;;;;;;496598;239;29331;-76
2023/03/26 05:04:30;;;;;;;10.40;3.13;;;6.70;99.90;;;;;;496397;239;29335;-76
2023/03/26 05:06:33;;;;;;;6.80;2.70;;;6.70;99.90;;;;;;496637;239;27719;-76
2023/03/26 05:08:32;;;;;;;8.90;2.80;;;6.70;99.90;;;;;;496484;239;28117;-76
2023/03/26 05:10:34;;;;;;;8.50;2.87;;;6.70;99.90;;;;;;496611;239;28907;-73
2023/03/26 05:12:35;;;;;;;9.00;2.43;;;6.70;99.90;;;;;;496599;239;27844;-73
2023/03/26 05:14:36;;;;;;;5.97;2.53;;;6.70;99.90;;;;;;496578;239;28959;-76
2023/03/26 05:16:38;;;;;;;8.17;3.13;;;6.70;99.90;;;;;;496612;239;27958;-76
2023/03/26 05:18:39;;;;;;;9.80;2.40;;;6.70;99.90;;;;;;496616;239;27828;-76
2023/03/26 05:20:40;;;;;;;7.93;2.50;;;6.70;99.90;;;;;;496608;239;28078;-76
2023/03/26 05:22:41;;;;;;;8.60;2.57;;;6.70;99.90;;;;;;496546;239;27977;-75
2023/03/26 05:24:42;;;;;;;12.27;2.73;;;6.80;99.90;;;;;;496532;239;28857;-76
2023/03/26 05:26:44;;;;;;;11.20;3.07;;;6.70;99.90;;;;;;496601;239;27969;-76
2023/03/26 05:28:45;;;;;;;7.53;2.53;;;6.70;99.90;;;;;;496568;239;28663;-76
2023/03/26 05:30:46;;;;;;;7.73;2.60;;;6.80;99.90;;;;;;496591;239;28424;-76
2023/03/26 05:32:50;;;;;;;6.87;1.87;;;6.70;99.90;;;;;;496571;239;28502;-76
2023/03/26 05:34:52;;;;;;;6.60;2.80;;;6.70;99.90;;;;;;496540;239;28854;-76
2023/03/26 05:36:53;;;;;;;16.27;2.77;;;6.80;99.90;;;;;;496555;239;27866;-76
2023/03/26 05:38:54;;;;;;;10.50;2.57;;;6.80;99.90;;;;;;496556;239;27942;-75
2023/03/26 05:40:55;;;;;;;6.17;2.17;;;6.80;99.90;;;;;;496581;239;27860;-76
2023/03/26 05:42:57;;;;;;;6.57;2.80;;;6.80;99.90;;;;;;496566;239;28320;-78
2023/03/26 05:44:58;;;;;;;4.53;2.10;;;6.80;99.90;;;;;;496552;239;28323;-76
2023/03/26 05:46:59;;;;;;;4.13;2.10;;;6.70;99.90;;;;;;496606;239;28515;-75
2023/03/26 05:49:00;;;;;;;11.27;2.70;;;6.70;99.90;;;;;;496578;239;28592;-76
2023/03/26 05:51:02;;;;;;;9.50;2.70;;;6.80;99.90;;;;;;496595;239;27516;-76
2023/03/26 05:53:03;;;;;;;20.10;3.37;;;6.80;99.90;;;;;;496580;239;28071;-76
2023/03/26 05:55:05;;;;;;;7.13;2.33;;;6.80;99.90;;;;;;496562;239;27995;-75
2023/03/26 05:57:05;;;;;;;10.20;3.50;;;6.80;99.90;;;;;;496585;236;27939;-75
2023/03/26 05:59:07;;;;;;;4.47;2.23;;;6.80;99.90;;;;;;496613;239;27961;-76
2023/03/26 06:01:08;;;;;;;6.57;2.80;;;6.80;99.90;;;;;;496611;239;27836;-76
2023/03/26 06:03:11;;;;;;;11.43;3.23;;;6.90;99.90;;;;;;496596;239;28205;-76
2023/03/26 06:05:11;;;;;;;10.60;3.47;;;6.90;99.90;;;;;;496432;239;27856;-76
2023/03/26 06:07:12;;;;;;;8.30;2.27;;;6.90;99.90;;;;;;496453;239;27659;-76
2023/03/26 06:09:13;;;;;;;6.80;2.30;;;6.90;99.90;;;;;;496601;239;28517;-76
2023/03/26 06:11:14;;;;;;;7.90;2.80;;;6.90;99.90;;;;;;496506;239;28090;-76
2023/03/26 06:13:16;;;;;;;5.17;2.57;;;6.90;99.90;;;;;;496604;239;28549;-74
2023/03/26 06:15:17;;;;;;;4.40;2.43;;;7.00;99.90;;;;;;496552;236;28464;-73
2023/03/26 06:17:18;;;;;;;14.47;3.67;;;6.90;99.90;;;;;;496569;239;28446;-73
2023/03/26 06:19:19;;;;;;;10.20;2.87;;;7.00;99.90;;;;;;496622;239;29165;-76
2023/03/26 06:21:20;;;;;;;5.07;2.50;;;7.00;99.90;;;;;;496581;239;27985;-75
2023/03/26 06:23:22;;;;;;;7.17;2.63;;;7.00;99.90;;;;;;496616;239;27872;-73
2023/03/26 06:25:23;;;;;;;7.20;3.07;;;7.00;99.90;;;;;;496554;239;28155;-73
2023/03/26 06:27:24;;;;;;;6.23;2.63;;;7.00;99.90;;;;;;496583;239;28335;-76
2023/03/26 06:29:25;;;;;;;8.83;3.40;;;6.90;99.90;;;;;;496568;239;27938;-76
2023/03/26 06:31:27;;;;;;;6.77;2.67;;;6.90;99.90;;;;;;496583;239;27990;-76
2023/03/26 06:33:28;;;;;;;17.53;3.30;;;6.90;99.90;;;;;;496587;239;28006;-76
2023/03/26 06:35:29;;;;;;;8.40;2.87;;;6.90;99.90;;;;;;496539;239;27793;-76
2023/03/26 06:37:30;;;;;;;7.80;2.50;;;6.80;99.90;;;;;;496601;239;27713;-76
2023/03/26 06:39:32;;;;;;;6.30;2.60;;;6.80;99.90;;;;;;496611;239;27590;-76
2023/03/26 06:41:33;;;;;;;6.40;2.27;;;6.80;99.90;;;;;;496561;239;27984;-76
2023/03/26 06:43:35;;;;;;;8.87;2.50;;;6.80;99.90;;;;;;496575;239;27979;-75
2023/03/26 06:45:35;;;;;;;7.00;2.30;;;6.80;99.90;;;;;;496530;239;28869;-76
2023/03/26 06:47:37;;;;;;;9.63;2.90;;;6.80;99.90;;;;;;496598;239;28757;-75
2023/03/26 06:49:38;;;;;;;9.70;2.57;;;6.70;99.90;;;;;;496603;239;28547;-76
2023/03/26 06:51:40;;;;;;;13.60;2.70;;;6.80;99.90;;;;;;496585;239;28527;-73
2023/03/26 06:53:40;;;;;;;8.77;2.30;;;6.80;99.90;;;;;;496462;239;28467;-74
2023/03/26 06:55:42;;;;;;;4.93;2.33;;;6.70;99.90;;;;;;496413;239;27918;-73
2023/03/26 06:57:44;;;;;;;8.00;2.17;;;6.60;99.90;;;;;;496533;239;28071;-76
2023/03/26 06:59:44;;;;;;;5.50;1.93;;;6.70;99.90;;;;;;496470;239;27671;-76
2023/03/26 07:01:45;;;;;;;11.43;2.33;;;6.60;99.90;;;;;;496616;239;27970;-76
2023/03/26 07:03:47;;;;;;;7.53;2.13;;;6.60;99.90;;;;;;496604;239;27753;-76
2023/03/26 07:05:48;;;;;;;4.40;2.57;;;6.60;99.90;;;;;;496554;239;27799;-76
2023/03/26 07:07:49;;;;;;;7.70;2.50;;;6.60;99.90;;;;;;496595;239;28436;-76
2023/03/26 07:09:50;;;;;;;4.40;2.13;;;6.60;99.90;;;;;;496590;239;27694;-76
2023/03/26 07:11:52;;;;;;;4.30;1.90;;;6.60;99.90;;;;;;496587;239;27991;-76
2023/03/26 07:13:55;;;;;;;7.00;2.30;;;6.60;99.90;;;;;;496603;239;28341;-73
2023/03/26 07:15:54;;;;;;;4.40;2.00;;;6.60;99.90;;;;;;496419;239;27661;-73
2023/03/26 07:17:55;;;;;;;8.73;2.40;;;6.60;99.90;;;;;;496587;239;27627;-73
2023/03/26 07:19:57;;;;;;;6.47;2.33;;;6.60;99.90;;;;;;496574;239;28028;-73
2023/03/26 07:21:58;;;;;;;3.47;1.90;;;6.60;99.90;;;;;;496556;239;28463;-76
2023/03/26 07:23:59;;;;;;;4.37;2.40;;;6.60;99.90;;;;;;496600;239;28588;-75
2023/03/26 07:26:00;;;;;;;4.77;2.10;;;6.70;99.90;;;;;;496531;239;28410;-75
2023/03/26 07:28:02;;;;;;;6.07;2.10;;;6.60;99.90;;;;;;496600;239;28235;-76
2023/03/26 07:30:03;;;;;;;6.30;2.10;;;6.60;99.90;;;;;;496583;239;28545;-76
2023/03/26 07:32:04;;;;;;;8.50;2.50;;;6.60;99.90;;;;;;496574;239;28450;-75
2023/03/26 07:34:05;;;;;;;5.37;2.00;;;6.50;99.90;;;;;;496593;239;27509;-75
2023/03/26 07:36:07;;;;;;;7.43;1.90;;;6.60;99.90;;;;;;496534;239;27586;-75
2023/03/26 07:38:08;;;;;;;4.90;2.10;;;6.40;99.90;;;;;;496275;239;27876;-75
2023/03/26 07:40:09;;;;;;;5.60;1.87;;;6.40;99.90;;;;;;496159;239;28812;-75
2023/03/26 07:42:10;;;;;;;5.13;1.93;;;6.50;99.90;;;;;;496545;239;27631;-75
2023/03/26 07:44:12;;;;;;;6.17;2.30;;;6.60;99.90;;;;;;496549;239;29320;-76
2023/03/26 07:46:13;;;;;;;5.73;1.70;;;6.60;99.90;;;;;;496558;239;28879;-76
2023/03/26 07:48:14;;;;;;;2.40;1.70;;;6.60;99.90;;;;;;496601;236;28005;-76
2023/03/26 07:50:15;;;;;;;4.50;1.57;;;6.70;99.90;;;;;;496558;239;27963;-75
2023/03/26 07:52:17;;;;;;;4.87;1.37;;;6.70;99.90;;;;;;496580;239;27989;-76
2023/03/26 07:54:18;;;;;;;4.90;2.23;;;6.70;99.90;;;;;;496539;239;27708;-76
2023/03/26 07:56:19;;;;;;;8.17;2.10;;;6.60;99.90;;;;;;496551;236;28052;-75
2023/03/26 07:58:20;;;;;;;3.97;1.50;;;6.70;99.90;;;;;;496590;239;28537;-76
2023/03/26 08:00:22;;;;;;;6.10;2.20;;;6.80;99.90;;;;;;496595;239;27925;-76
2023/03/26 08:02:23;;;;;;;7.30;2.50;;;6.90;99.90;;;;;;496565;239;28221;-76
2023/03/26 08:04:26;;;;;;;6.50;2.20;;;7.00;99.90;;;;;;496365;239;28317;-76
2023/03/26 08:06:25;;;;;;;4.80;2.67;;;7.10;99.90;;;;;;496332;239;27941;-76
2023/03/26 08:08:27;;;;;;;5.30;4.00;;;7.30;99.90;;;;;;496600;239;27868;-76
2023/03/26 08:10:28;;;;;;;3.90;2.20;;;7.40;99.90;;;;;;496570;236;27954;-76
2023/03/26 08:12:29;;;;;;;8.20;2.43;;;7.40;99.90;;;;;;496466;239;27854;-75
2023/03/26 08:14:31;;;;;;;4.57;1.90;;;7.40;99.90;;;;;;496538;239;27950;-76
2023/03/26 08:16:32;;;;;;;2.80;1.77;;;7.40;99.90;;;;;;496573;239;27681;-76
2023/03/26 08:18:34;;;;;;;4.30;1.93;;;7.50;99.90;;;;;;496534;239;27734;-76
2023/03/26 08:20:34;;;;;;;4.97;2.00;;;7.60;99.90;;;;;;496567;239;27974;-76
2023/03/26 08:22:36;;;;;;;2.63;1.73;;;7.60;99.90;;;;;;496579;239;28074;-76
2023/03/26 08:24:37;;;;;;;3.03;1.67;;;7.50;99.90;;;;;;496550;239;27743;-76
2023/03/26 08:26:38;;;;;;;4.43;2.50;;;7.50;99.90;;;;;;496589;235;27933;-76
2023/03/26 08:28:39;;;;;;;2.30;1.70;;;7.50;99.90;;;;;;496606;239;27747;-76
2023/03/26 08:30:40;;;;;;;6.27;1.90;;;7.60;99.90;;;;;;496585;239;27925;-76
2023/03/26 08:32:42;;;;;;;6.53;2.23;;;7.70;99.90;;;;;;496619;239;28481;-75
2023/03/26 08:34:43;;;;;;;4.90;2.10;;;8.00;99.90;;;;;;496567;239;28632;-76
2023/03/26 08:36:44;;;;;;;3.40;1.50;;;8.20;99.90;;;;;;496629;239;28396;-76
2023/03/26 08:38:45;;;;;;;5.73;2.33;;;8.50;99.90;;;;;;496612;239;28581;-76
2023/03/26 08:40:47;;;;;;;3.00;1.83;;;8.70;99.90;;;;;;496619;236;28158;-76
2023/03/26 08:42:48;;;;;;;6.57;1.90;;;8.80;99.90;;;;;;496637;239;28479;-76
2023/03/26 08:44:49;;;;;;;3.93;2.10;;;9.00;99.90;;;;;;496540;239;28086;-76
2023/03/26 08:46:50;;;;;;;6.10;2.27;;;9.10;99.90;;;;;;496600;239;27950;-76
2023/03/26 08:48:52;;;;;;;2.37;2.00;;;9.10;99.90;;;;;;496577;235;27985;-76
2023/03/26 08:50:53;;;;;;;2.77;1.80;;;9.30;99.90;;;;;;496587;239;28377;-76
2023/03/26 08:52:54;;;;;;;2.30;1.60;;;9.40;99.90;;;;;;496560;239;27986;-76
2023/03/26 08:54:55;;;;;;;6.70;2.10;;;9.20;99.90;;;;;;496516;239;28069;-76
2023/03/26 08:56:57;;;;;;;6.60;2.07;;;9.10;99.90;;;;;;496585;239;28033;-75
2023/03/26 08:58:58;;;;;;;6.10;2.40;;;9.20;99.90;;;;;;496571;236;28078;-77
2023/03/26 09:01:00;;;;;;;6.83;1.80;;;9.20;99.90;;;;;;496405;239;28026;-76
2023/03/26 09:03:00;;;;;;;5.23;2.27;;;9.00;99.90;;;;;;496503;239;28076;-76
2023/03/26 09:05:02;;;;;;;1.73;1.63;;;8.70;99.90;;;;;;496484;239;28340;-76
2023/03/26 09:07:05;;;;;;;2.97;1.73;;;8.70;99.90;;;;;;496594;239;27959;-76
2023/03/26 09:09:04;;;;;;;3.47;2.00;;;8.70;99.90;;;;;;496454;239;27953;-76
2023/03/26 09:11:05;;;;;;;3.80;1.63;;;9.10;99.90;;;;;;496617;239;28436;-76
2023/03/26 09:13:07;;;;;;;2.60;2.10;;;9.50;99.90;;;;;;496639;239;28469;-76
2023/03/26 09:15:09;;;;;;;5.50;2.23;;;9.60;99.90;;;;;;496586;239;28472;-77
2023/03/26 09:17:11;;;;;;;6.27;2.23;;;9.50;99.90;;;;;;496634;239;28419;-76
2023/03/26 09:19:10;;;;;;;3.73;2.50;;;9.50;99.90;;;;;;496498;239;28554;-77
2023/03/26 09:21:12;;;;;;;5.40;2.17;;;9.40;99.90;;;;;;496629;239;27934;-76
2023/03/26 09:23:13;;;;;;;6.00;2.17;;;9.60;99.90;;;;;;496617;239;27960;-76
2023/03/26 09:25:14;;;;;;;6.00;1.93;;;9.70;99.90;;;;;;496575;239;28061;-76
2023/03/26 09:27:15;;;;;;;5.57;2.40;;;9.60;99.90;;;;;;486328;235;27889;-76
2023/03/26 09:29:17;;;;;;;3.33;1.90;;;9.60;99.90;;;;;;483825;245;27877;-76
2023/03/26 09:31:18;;;;;;;9.00;2.30;;;9.70;99.90;;;;;;483812;245;28063;-76
2023/03/26 09:33:19;;;;;;;7.13;2.17;;;9.50;99.90;;;;;;483794;245;28037;-76
2023/03/26 09:35:20;;;;;;;5.33;2.10;;;9.40;99.90;;;;;;483785;245;28318;-76
2023/03/26 09:37:22;;;;;;;4.40;2.27;;;9.30;99.90;;;;;;483811;246;27731;-76
2023/03/26 09:39:23;;;;;;;4.80;2.20;;;9.60;99.90;;;;;;483780;245;27888;-76
2023/03/26 09:41:24;;;;;;;5.50;1.97;;;9.80;99.90;;;;;;483766;245;27942;-76
2023/03/26 09:43:25;;;;;;;3.10;1.70;;;9.70;99.90;;;;;;483798;245;27954;-75
2023/03/26 09:45:27;;;;;;;3.40;1.80;;;9.80;99.90;;;;;;483754;245;28235;-76
2023/03/26 09:47:28;;;;;;;7.47;1.90;;;9.80;99.90;;;;;;483823;246;28042;-76
2023/03/26 09:49:29;;;;;;;6.70;1.80;;;9.90;99.90;;;;;;483802;244;28344;-76
2023/03/26 09:51:30;;;;;;;5.33;2.10;;;9.80;99.90;;;;;;483776;246;28850;-76
2023/03/26 09:53:32;;;;;;;4.73;2.10;;;9.70;99.90;;;;;;483751;246;28542;-76
2023/03/26 09:55:34;;;;;;;3.80;1.67;;;9.80;99.90;;;;;;483754;245;28467;-76
2023/03/26 09:57:34;;;;;;;6.53;1.90;;;9.80;99.90;;;;;;494043;235;28260;-75
2023/03/26 09:59:35;;;;;;;2.30;2.10;;;9.60;99.90;;;;;;495714;240;28386;-76
2023/03/26 10:01:37;;;;;;;3.60;1.90;;;9.50;99.90;;;;;;495734;240;27890;-76
2023/03/26 10:03:39;;;;;;;4.30;1.77;;;9.30;99.90;;;;;;495705;240;27811;-76
2023/03/26 10:07:46;;;;;;;4.53;1.87;;;9.20;99.90;;;;;;484613;240;27995;-76
2023/03/26 10:09:49;;;;;;;3.97;1.83;;;9.30;99.90;;;;;;484393;245;28096;-76
2023/03/26 10:11:49;;;;;;;8.33;1.83;;;9.40;99.90;;;;;;484253;245;27958;-76
2023/03/26 10:13:50;;;;;;;2.47;1.50;;;9.40;99.90;;;;;;484392;245;27821;-76
2023/03/26 10:15:51;;;;;;;4.73;1.90;;;9.20;99.90;;;;;;484331;245;27919;-75
2023/03/26 10:17:54;;;;;;;4.33;1.47;;;9.10;99.90;;;;;;484355;245;27824;-76
2023/03/26 10:19:54;;;;;;;6.00;1.73;;;9.30;99.90;;;;;;484310;245;27983;-76
2023/03/26 10:21:55;;;;;;;4.50;1.80;;;9.30;99.90;;;;;;484337;245;28085;-76
2023/03/26 10:23:56;;;;;;;2.37;1.67;;;9.40;99.90;;;;;;484317;245;27636;-76
2023/03/26 10:25:57;;;;;;;4.07;1.83;;;9.50;99.90;;;;;;484257;243;28192;-76
2023/03/26 10:27:59;;;;;;;2.93;1.43;;;9.50;99.90;;;;;;484343;245;28040;-75
2023/03/26 10:30:00;;;;;;;4.47;1.43;;;9.50;99.90;;;;;;484340;244;27983;-76
2023/03/26 10:32:01;;;;;;;2.27;1.50;;;9.40;99.90;;;;;;484334;245;27958;-76
2023/03/26 10:34:04;;;;;;;1.23;1.00;;;9.20;99.90;;;;;;484288;245;27948;-76
2023/03/26 10:36:04;;;;;;;2.60;1.30;;;9.20;99.90;;;;;;484167;245;29357;-75
2023/03/26 10:38:05;;;;;;;2.57;1.30;;;9.30;99.90;;;;;;484368;245;28373;-76
2023/03/26 10:40:06;;;;;;;1.33;1.00;;;9.10;99.90;;;;;;484326;245;28266;-76